Time;durP1;ratioP1;P1;durP2;ratioP2;P2;SDS_P1;SDS_P2;PMS_P1;PMS_P2;Temp;Humidity;BMP_temperature;BMP_pressure;BME280_temperature;BME280_humidity;BME280_pressure;Samples;Min_cycle;Max_cycle;Signal;HPM_P1;HPM_P2
2022/04/19 00:01:31;;;;;;;3.38;3.17;;;7.30;99.90;;;;;;5035909;28;20224;-69
2022/04/19 00:03:59;;;;;;;4.25;3.70;;;7.30;99.90;;;;;;5036903;27;20537;-68
2022/04/19 00:06:26;;;;;;;4.10;3.10;;;7.30;99.90;;;;;;5036626;28;20194;-68
2022/04/19 00:08:54;;;;;;;4.03;3.70;;;7.20;99.90;;;;;;5036282;28;20210;-68
2022/04/19 00:11:22;;;;;;;4.30;3.90;;;7.20;99.90;;;;;;5035767;28;20225;-70
2022/04/19 00:13:51;;;;;;;4.50;3.90;;;7.20;99.90;;;;;;5036055;28;20510;-68
2022/04/19 00:16:19;;;;;;;3.65;3.35;;;7.20;99.90;;;;;;5035504;27;20218;-68
2022/04/19 00:18:47;;;;;;;4.60;4.15;;;7.20;99.90;;;;;;5035648;28;20680;-68
2022/04/19 00:21:16;;;;;;;3.92;3.58;;;7.20;99.90;;;;;;5035720;28;20312;-68
2022/04/19 00:23:46;;;;;;;4.68;4.28;;;7.20;99.90;;;;;;5036004;28;20237;-68
2022/04/19 00:26:14;;;;;;;5.88;4.75;;;7.10;99.90;;;;;;5035896;28;20599;-68
2022/04/19 00:28:41;;;;;;;4.43;3.65;;;7.20;99.90;;;;;;5035757;28;20216;-68
2022/04/19 00:31:11;;;;;;;4.82;4.32;;;7.10;99.90;;;;;;5035604;27;20217;-69
2022/04/19 00:33:44;;;;;;;5.65;4.07;;;7.10;99.90;;;;;;5036475;28;20209;-70
2022/04/19 00:36:13;;;;;;;4.80;4.22;;;7.00;99.90;;;;;;5036791;28;20673;-71
2022/04/19 00:38:41;;;;;;;5.47;4.60;;;7.00;99.90;;;;;;5040288;28;20202;-69
2022/04/19 00:41:11;;;;;;;4.78;3.63;;;7.00;99.90;;;;;;5040889;28;20221;-69
2022/04/19 00:43:40;;;;;;;4.80;3.95;;;7.00;99.90;;;;;;5039859;28;20198;-69
2022/04/19 00:46:08;;;;;;;5.72;5.18;;;6.90;99.90;;;;;;5038755;27;20213;-71
2022/04/19 00:48:37;;;;;;;7.70;4.25;;;6.90;99.90;;;;;;5037902;28;20231;-69
2022/04/19 00:51:06;;;;;;;6.00;5.13;;;6.90;99.90;;;;;;5037038;28;20707;-70
2022/04/19 00:53:35;;;;;;;6.55;5.55;;;6.90;99.90;;;;;;5036165;28;20205;-69
2022/04/19 00:56:03;;;;;;;7.65;4.80;;;6.90;99.90;;;;;;5036950;28;20228;-69
2022/04/19 00:58:31;;;;;;;6.72;5.55;;;6.80;99.90;;;;;;5036307;28;20461;-68
2022/04/19 01:01:00;;;;;;;5.80;5.13;;;6.80;99.90;;;;;;5035925;27;20249;-68
2022/04/19 01:03:28;;;;;;;6.40;4.70;;;6.80;99.90;;;;;;5036806;28;20509;-68
2022/04/19 01:05:58;;;;;;;8.10;4.78;;;6.70;99.90;;;;;;5035687;28;20205;-71
2022/04/19 01:08:27;;;;;;;5.00;4.57;;;6.70;99.90;;;;;;5036162;28;20285;-68
2022/04/19 01:13:17;;;;;;;7.45;5.93;;;6.70;99.90;;;;;;5036178;28;20711;-71
2022/04/19 01:13:42;;;;;;;7.07;5.93;;;6.80;99.90;;;;;;5019073;27;20222;-71
2022/04/19 01:16:10;;;;;;;5.97;5.25;;;6.80;99.90;;;;;;5037678;28;20234;-72
2022/04/19 01:18:41;;;;;;;7.80;5.80;;;6.80;99.90;;;;;;5024938;28;20284;-69
2022/04/19 01:21:10;;;;;;;6.60;6.00;;;6.70;99.90;;;;;;5019658;28;20222;-71
2022/04/19 01:23:41;;;;;;;6.20;5.68;;;6.70;99.90;;;;;;5016848;28;20745;-70
2022/04/19 01:26:09;;;;;;;5.43;4.93;;;6.60;99.90;;;;;;5018533;28;20253;-71
2022/04/19 01:28:36;;;;;;;6.43;5.25;;;6.60;99.90;;;;;;5018520;28;20195;-72
2022/04/19 01:31:05;;;;;;;6.35;4.32;;;6.60;99.90;;;;;;5017968;28;20222;-71
2022/04/19 01:33:32;;;;;;;6.82;6.00;;;6.60;99.90;;;;;;5018433;28;20202;-73
2022/04/19 01:36:00;;;;;;;8.30;5.60;;;6.60;99.90;;;;;;5019846;28;20198;-72
2022/04/19 01:38:28;;;;;;;6.90;5.30;;;6.60;99.90;;;;;;5020690;28;20218;-73
2022/04/19 01:40:57;;;;;;;8.10;5.65;;;6.60;99.90;;;;;;5019836;28;20222;-72
2022/04/19 01:43:25;;;;;;;6.60;5.95;;;6.60;99.90;;;;;;5019067;28;20206;-72
2022/04/19 01:45:54;;;;;;;7.65;6.13;;;6.60;99.90;;;;;;5018471;28;20606;-72
2022/04/19 01:48:22;;;;;;;7.78;5.80;;;6.60;99.90;;;;;;5018546;28;20252;-73
2022/04/19 01:50:50;;;;;;;7.70;6.57;;;6.60;99.90;;;;;;5018610;28;20589;-72
2022/04/19 01:53:18;;;;;;;7.28;6.57;;;6.60;99.90;;;;;;5017557;28;20662;-73
2022/04/19 01:55:46;;;;;;;5.97;5.38;;;6.50;99.90;;;;;;5018420;28;20608;-72
2022/04/19 01:58:17;;;;;;;7.07;5.38;;;6.50;99.90;;;;;;5018388;28;20591;-73
2022/04/19 02:00:45;;;;;;;6.95;6.25;;;6.50;99.90;;;;;;5018156;27;20227;-72
2022/04/19 02:03:12;;;;;;;7.40;6.43;;;6.50;99.90;;;;;;5018714;28;20628;-72
2022/04/19 02:05:40;;;;;;;9.70;6.00;;;6.40;99.90;;;;;;5017698;28;20573;-72
2022/04/19 02:08:08;;;;;;;9.50;6.18;;;6.40;99.90;;;;;;5018081;28;20501;-71
2022/04/19 02:10:36;;;;;;;7.00;6.35;;;6.30;99.90;;;;;;5017905;28;20229;-71
2022/04/19 02:13:04;;;;;;;10.80;6.97;;;6.30;99.90;;;;;;5017810;28;20602;-71
2022/04/19 02:15:33;;;;;;;10.52;7.47;;;6.20;99.90;;;;;;5018251;28;20217;-71
2022/04/19 02:18:02;;;;;;;8.65;6.40;;;6.10;99.90;;;;;;5017714;28;20731;-71
2022/04/19 02:20:30;;;;;;;11.18;7.88;;;6.00;99.90;;;;;;5017900;28;20457;-71
2022/04/19 02:22:57;;;;;;;9.10;6.80;;;6.00;99.90;;;;;;5020425;28;20211;-71
2022/04/19 02:25:26;;;;;;;9.65;7.68;;;5.90;99.90;;;;;;5021300;28;20646;-72
2022/04/19 02:27:54;;;;;;;7.55;6.50;;;5.90;99.90;;;;;;5019308;28;20598;-72
2022/04/19 02:30:21;;;;;;;12.00;7.60;;;5.80;99.90;;;;;;5018656;28;20207;-71
2022/04/19 02:32:51;;;;;;;8.63;6.53;;;5.80;99.90;;;;;;5018488;28;20220;-72
2022/04/19 02:35:20;;;;;;;7.47;6.30;;;5.80;99.90;;;;;;5018096;28;20601;-74
2022/04/19 02:37:49;;;;;;;7.95;6.68;;;5.70;99.90;;;;;;5017632;28;20842;-72
2022/04/19 02:40:19;;;;;;;8.48;7.20;;;5.60;99.90;;;;;;5017729;28;20293;-72
2022/04/19 02:42:47;;;;;;;8.18;7.38;;;5.60;99.90;;;;;;5017191;28;20693;-71
2022/04/19 02:45:15;;;;;;;10.70;7.90;;;5.50;99.90;;;;;;5017843;28;20206;-70
2022/04/19 02:47:43;;;;;;;10.32;7.43;;;5.50;99.90;;;;;;5017662;28;20454;-70
2022/04/19 02:50:13;;;;;;;8.07;6.88;;;5.50;99.90;;;;;;5017574;27;20217;-71
2022/04/19 02:52:40;;;;;;;10.75;7.25;;;5.50;99.90;;;;;;5017526;28;20256;-71
2022/04/19 02:55:09;;;;;;;10.27;7.25;;;5.40;99.90;;;;;;5017120;28;20442;-71
2022/04/19 02:57:36;;;;;;;10.23;7.43;;;5.40;99.90;;;;;;5017269;28;20222;-72
2022/04/19 03:00:05;;;;;;;9.63;8.02;;;5.40;99.90;;;;;;5017688;28;20199;-71
2022/04/19 03:02:33;;;;;;;9.35;7.82;;;5.30;99.90;;;;;;5017155;28;20225;-71
2022/04/19 03:05:01;;;;;;;10.27;8.10;;;5.30;99.90;;;;;;5017725;28;20202;-71
2022/04/19 03:07:30;;;;;;;10.52;7.30;;;5.30;99.90;;;;;;5017342;28;20195;-70
2022/04/19 03:09:58;;;;;;;12.30;8.55;;;5.30;99.90;;;;;;5017278;28;20707;-71
2022/04/19 03:12:27;;;;;;;12.95;7.30;;;5.20;99.90;;;;;;5018387;28;20226;-70
2022/04/19 03:14:55;;;;;;;10.93;7.40;;;5.20;99.90;;;;;;5025923;28;20574;-70
2022/04/19 03:17:23;;;;;;;11.45;8.05;;;5.20;99.90;;;;;;5023016;28;20203;-70
2022/04/19 03:19:51;;;;;;;9.52;7.60;;;5.20;99.90;;;;;;5019133;28;20213;-70
2022/04/19 03:22:18;;;;;;;9.68;7.35;;;5.20;99.90;;;;;;5019910;28;20321;-70
2022/04/19 03:27:42;;;;;;;12.57;8.25;;;5.10;99.90;;;;;;5022074;28;20202;-71
2022/04/19 03:30:12;;;;;;;11.25;8.07;;;5.10;99.90;;;;;;5024368;28;20397;-69
2022/04/19 03:32:39;;;;;;;15.15;7.50;;;5.10;99.90;;;;;;5025709;28;20279;-70
2022/04/19 03:35:08;;;;;;;12.68;8.20;;;5.00;99.90;;;;;;5024949;28;20199;-70
2022/04/19 03:37:36;;;;;;;8.82;7.93;;;5.00;99.90;;;;;;5027062;28;20208;-68
2022/04/19 03:40:07;;;;;;;9.50;7.80;;;5.00;99.90;;;;;;5025262;28;20207;-69
2022/04/19 03:42:35;;;;;;;9.88;7.30;;;5.00;99.90;;;;;;5022888;28;20321;-70
2022/04/19 03:45:03;;;;;;;7.22;6.53;;;5.00;99.90;;;;;;5022429;28;20498;-69
2022/04/19 03:47:34;;;;;;;8.90;7.07;;;5.00;99.90;;;;;;5022679;28;20306;-70
2022/04/19 03:50:02;;;;;;;12.05;7.07;;;5.00;99.90;;;;;;5018079;28;20198;-68
2022/04/19 03:52:30;;;;;;;7.72;6.22;;;5.00;99.90;;;;;;5018189;27;20705;-71
2022/04/19 03:54:58;;;;;;;9.00;6.85;;;5.00;99.90;;;;;;5018074;28;20225;-70
2022/04/19 03:57:27;;;;;;;8.77;7.05;;;5.00;99.90;;;;;;5017551;28;20203;-69
2022/04/19 03:59:55;;;;;;;6.95;6.20;;;4.90;99.90;;;;;;5017427;28;20218;-70
2022/04/19 04:02:23;;;;;;;9.15;7.32;;;4.90;99.90;;;;;;5016825;28;20262;-70
2022/04/19 04:04:51;;;;;;;12.57;7.97;;;4.90;99.90;;;;;;5019116;28;20209;-70
2022/04/19 04:07:19;;;;;;;13.15;7.35;;;4.90;99.90;;;;;;5025629;28;20241;-70
2022/04/19 04:09:48;;;;;;;8.20;7.00;;;4.90;99.90;;;;;;5025271;28;20224;-69
2022/04/19 04:12:16;;;;;;;12.07;7.10;;;4.90;99.90;;;;;;5021281;28;20230;-69
2022/04/19 04:14:46;;;;;;;9.63;7.47;;;4.80;99.90;;;;;;5016093;28;20244;-69
2022/04/19 04:17:13;;;;;;;9.73;7.93;;;4.80;99.90;;;;;;5015739;28;20275;-70
2022/04/19 04:19:43;;;;;;;7.20;5.88;;;4.80;99.90;;;;;;5016446;28;20226;-68
2022/04/19 04:22:11;;;;;;;11.50;7.88;;;4.80;99.90;;;;;;5015957;28;20264;-69
2022/04/19 04:24:38;;;;;;;10.73;7.68;;;4.80;99.90;;;;;;5016317;28;20210;-69
2022/04/19 04:27:06;;;;;;;8.25;6.70;;;4.80;99.90;;;;;;5016213;28;20217;-71
2022/04/19 04:29:34;;;;;;;10.15;6.90;;;4.90;99.90;;;;;;5016006;28;20202;-69
2022/04/19 04:32:04;;;;;;;7.97;6.50;;;4.90;99.90;;;;;;5016136;28;20300;-71
2022/04/19 04:34:32;;;;;;;9.38;6.60;;;5.00;99.90;;;;;;5016258;27;20599;-71
2022/04/19 04:37:00;;;;;;;12.40;8.05;;;5.00;99.90;;;;;;5016609;28;20203;-72
2022/04/19 04:39:28;;;;;;;10.25;7.65;;;5.10;99.90;;;;;;5015953;28;20252;-72
2022/04/19 04:41:56;;;;;;;11.18;7.60;;;5.10;99.90;;;;;;5016219;28;20368;-72
2022/04/19 04:44:24;;;;;;;9.52;7.63;;;5.20;99.90;;;;;;5016011;28;20202;-72
2022/04/19 04:49:39;;;;;;;12.23;6.70;;;5.30;99.90;;;;;;5018387;28;20199;-71
2022/04/19 04:52:10;;;;;;;8.00;6.25;;;5.30;99.90;;;;;;5016481;28;20437;-71
2022/04/19 04:54:39;;;;;;;7.85;6.13;;;5.30;99.90;;;;;;5016047;28;20209;-71
2022/04/19 04:57:08;;;;;;;9.15;7.10;;;5.40;99.90;;;;;;5005190;28;20250;-72
2022/04/19 04:59:36;;;;;;;7.75;6.93;;;5.40;99.90;;;;;;5000052;28;20226;-72
2022/04/19 05:02:07;;;;;;;9.10;7.03;;;5.50;99.90;;;;;;4999579;27;20227;-71
2022/04/19 05:04:35;;;;;;;10.82;7.65;;;5.50;99.90;;;;;;5009353;28;20199;-71
2022/04/19 05:07:05;;;;;;;9.98;6.93;;;5.60;99.90;;;;;;5010743;28;20221;-71
2022/04/19 05:09:33;;;;;;;9.07;7.22;;;5.60;99.90;;;;;;5010330;28;20190;-71
2022/04/19 05:12:01;;;;;;;7.88;6.65;;;5.70;99.90;;;;;;5019154;28;20225;-72
2022/04/19 05:14:29;;;;;;;6.93;6.20;;;5.80;99.90;;;;;;5017158;28;20309;-72
2022/04/19 05:16:57;;;;;;;10.35;8.02;;;5.80;99.90;;;;;;5019820;27;20221;-74
2022/04/19 05:19:24;;;;;;;9.90;7.53;;;5.90;99.90;;;;;;5019864;28;20704;-72
2022/04/19 05:21:52;;;;;;;15.68;8.95;;;6.00;99.90;;;;;;5019486;28;20456;-73
2022/04/19 05:24:23;;;;;;;14.70;7.90;;;6.10;99.90;;;;;;5019471;28;20202;-73
2022/04/19 05:26:50;;;;;;;9.70;6.97;;;6.20;99.90;;;;;;5019923;28;20719;-75
2022/04/19 05:29:18;;;;;;;7.53;6.20;;;6.30;99.90;;;;;;5019951;28;20213;-70
2022/04/19 05:31:46;;;;;;;12.65;8.57;;;6.40;99.90;;;;;;5019301;27;20222;-71
2022/04/19 05:34:14;;;;;;;10.70;8.40;;;6.40;99.90;;;;;;5022558;28;20597;-70
2022/04/19 05:36:42;;;;;;;10.88;7.78;;;6.40;99.90;;;;;;5020913;28;20202;-69
2022/04/19 05:39:10;;;;;;;12.50;9.32;;;6.50;99.90;;;;;;5023340;28;20219;-69
2022/04/19 05:41:40;;;;;;;8.98;6.93;;;6.60;99.90;;;;;;5022853;28;20222;-73
2022/04/19 05:44:09;;;;;;;11.18;7.30;;;6.60;99.90;;;;;;5021983;27;20263;-73
2022/04/19 05:46:37;;;;;;;8.75;7.85;;;6.70;99.90;;;;;;5022804;28;20241;-74
2022/04/19 05:49:05;;;;;;;12.35;8.57;;;6.90;99.90;;;;;;5023349;27;20729;-76
2022/04/19 05:51:34;;;;;;;13.10;6.95;;;7.00;99.90;;;;;;5023219;28;20889;-74
2022/04/19 05:54:02;;;;;;;9.70;7.00;;;7.20;99.90;;;;;;5032824;28;20237;-74
2022/04/19 05:56:32;;;;;;;8.98;7.30;;;7.30;99.90;;;;;;5034179;28;20217;-74
2022/04/19 05:59:01;;;;;;;8.50;6.60;;;7.30;99.90;;;;;;5023645;28;20291;-74
2022/04/19 06:04:51;;;;;;;8.45;7.35;;;7.40;99.90;;;;;;5025085;28;20260;-75
2022/04/19 06:07:03;;;;;;;9.45;7.35;;;7.50;99.90;;;;;;5022425;27;20201;-73
2022/04/19 06:09:30;;;;;;;9.15;7.75;;;7.60;99.90;;;;;;5027368;28;20641;-73
2022/04/19 06:12:00;;;;;;;7.65;6.78;;;7.60;99.90;;;;;;5032112;28;20473;-73
2022/04/19 06:14:30;;;;;;;9.45;7.60;;;7.70;99.90;;;;;;5021488;27;20297;-72
2022/04/19 06:16:57;;;;;;;10.02;7.30;;;7.80;99.90;;;;;;5027518;28;20301;-74
2022/04/19 06:19:27;;;;;;;12.82;8.18;;;7.80;99.90;;;;;;5025641;28;20539;-75
2022/04/19 06:21:55;;;;;;;9.13;7.20;;;7.80;99.90;;;;;;5005875;28;20219;-72
2022/04/19 06:24:23;;;;;;;10.55;8.18;;;7.80;99.90;;;;;;5005948;28;20199;-74
2022/04/19 06:26:51;;;;;;;7.18;6.47;;;7.70;99.90;;;;;;5011422;27;20726;-74
2022/04/19 06:29:19;;;;;;;8.05;6.80;;;7.70;99.90;;;;;;5016219;28;20199;-73
2022/04/19 06:31:49;;;;;;;7.50;6.28;;;7.80;99.90;;;;;;5021763;28;20230;-73
2022/04/19 06:34:17;;;;;;;9.20;7.50;;;7.80;99.90;;;;;;5020270;28;20206;-75
2022/04/19 06:36:45;;;;;;;10.27;6.95;;;7.80;99.90;;;;;;5027702;28;20285;-74
2022/04/19 06:39:14;;;;;;;9.70;7.15;;;7.80;99.90;;;;;;4999504;28;20195;-73
2022/04/19 06:41:42;;;;;;;7.10;6.40;;;7.90;99.90;;;;;;4999951;28;20314;-75
2022/04/19 06:44:10;;;;;;;9.70;6.75;;;7.90;99.90;;;;;;5014875;28;20227;-75
2022/04/19 06:46:38;;;;;;;11.13;7.65;;;7.90;99.90;;;;;;5029018;28;20215;-74
2022/04/19 06:49:07;;;;;;;9.43;7.70;;;7.90;99.90;;;;;;5024717;27;20202;-72
2022/04/19 06:51:35;;;;;;;13.18;8.65;;;8.00;99.90;;;;;;5011708;28;20241;-72
2022/04/19 06:54:32;;;;;;;11.30;6.30;;;8.00;99.90;;;;;;5014061;28;20290;-78
2022/04/19 06:57:00;;;;;;;8.38;7.00;;;8.10;99.90;;;;;;5015097;28;20209;-73
2022/04/19 06:59:28;;;;;;;9.02;7.47;;;8.10;99.90;;;;;;5008426;28;20482;-79
2022/04/19 07:01:56;;;;;;;8.05;6.97;;;8.10;99.90;;;;;;5007365;28;20221;-75
2022/04/19 07:04:36;;;;;;;8.90;7.25;;;8.20;99.90;;;;;;5009106;28;20206;-74
2022/04/19 07:07:04;;;;;;;7.25;6.40;;;8.30;99.90;;;;;;5026419;27;20211;-72
2022/04/19 07:09:35;;;;;;;7.15;6.45;;;8.40;99.90;;;;;;5022342;28;20201;-72
2022/04/19 07:12:06;;;;;;;9.10;6.70;;;8.60;99.90;;;;;;5007078;28;20305;-73
2022/04/19 07:14:35;;;;;;;5.93;5.35;;;8.70;99.90;;;;;;5012830;28;20203;-71
2022/04/19 07:17:04;;;;;;;7.35;5.53;;;8.80;99.90;;;;;;5022421;27;20203;-73
2022/04/19 07:27:59;;;;;;;4.95;4.55;;;9.30;99.90;;;;;;4994338;28;20241;-77
2022/04/19 07:30:30;;;;;;;6.05;5.18;;;9.30;99.90;;;;;;5024359;28;20217;-76
2022/04/19 07:33:00;;;;;;;4.97;4.40;;;9.40;99.90;;;;;;5026601;28;20588;-77
2022/04/19 07:35:29;;;;;;;5.70;4.40;;;9.50;99.90;;;;;;5035053;28;20433;-77
2022/04/19 07:37:57;;;;;;;5.28;4.78;;;9.70;99.90;;;;;;5030095;28;20206;-76
2022/04/19 07:40:25;;;;;;;5.80;4.45;;;9.80;99.90;;;;;;5032637;28;20310;-76
2022/04/19 07:42:54;;;;;;;4.72;4.30;;;9.90;99.90;;;;;;5016857;28;20225;-72
2022/04/19 07:45:22;;;;;;;4.95;4.35;;;9.90;99.90;;;;;;5015213;28;20198;-73
2022/04/19 07:47:49;;;;;;;4.50;4.07;;;10.10;99.90;;;;;;5026317;28;20210;-73
2022/04/19 07:50:17;;;;;;;3.80;3.50;;;10.10;99.90;;;;;;5013049;28;20329;-73
2022/04/19 07:52:46;;;;;;;4.28;3.88;;;10.20;99.90;;;;;;5034382;28;20232;-73
2022/04/19 07:55:14;;;;;;;3.53;3.25;;;10.30;99.90;;;;;;5020070;27;20300;-77
2022/04/19 07:57:42;;;;;;;4.65;3.40;;;10.40;99.90;;;;;;5016407;28;20206;-74
2022/04/19 08:00:11;;;;;;;3.05;2.85;;;10.50;99.90;;;;;;5017845;28;20225;-73
2022/04/19 08:02:39;;;;;;;2.20;2.00;;;10.60;99.90;;;;;;5015166;28;20226;-72
2022/04/19 08:05:08;;;;;;;2.55;1.90;;;10.70;99.90;;;;;;5017239;27;20859;-73
2022/04/19 08:07:36;;;;;;;2.67;2.47;;;10.80;99.90;;;;;;5017671;28;20215;-73
2022/04/19 08:10:07;;;;;;;1.35;1.23;;;10.90;99.90;;;;;;5020898;28;20203;-73
2022/04/19 08:12:35;;;;;;;1.40;1.40;;;11.00;99.90;;;;;;5037692;28;20230;-73
2022/04/19 08:15:03;;;;;;;1.93;1.77;;;11.10;99.90;;;;;;5030514;28;20441;-73
2022/04/19 08:17:33;;;;;;;2.45;1.83;;;11.20;99.90;;;;;;5020101;28;20529;-73
2022/04/19 08:20:02;;;;;;;3.00;2.53;;;11.20;99.90;;;;;;5019097;28;20203;-73
2022/04/19 08:22:31;;;;;;;3.10;2.72;;;11.20;99.90;;;;;;5019473;28;21067;-73
2022/04/19 08:24:59;;;;;;;3.20;2.42;;;11.30;99.90;;;;;;5019880;28;20223;-73
2022/04/19 08:27:29;;;;;;;2.65;2.35;;;11.30;99.90;;;;;;5018801;28;20751;-74
2022/04/19 08:29:56;;;;;;;3.00;2.67;;;11.30;99.90;;;;;;5018801;28;20203;-73
2022/04/19 08:32:24;;;;;;;2.70;2.50;;;11.30;99.90;;;;;;5017495;28;20236;-72
2022/04/19 08:34:56;;;;;;;2.40;2.20;;;11.40;99.90;;;;;;5018766;28;20442;-73
2022/04/19 08:37:29;;;;;;;2.80;2.47;;;11.40;99.90;;;;;;5020722;28;20191;-73
2022/04/19 08:39:57;;;;;;;4.30;2.90;;;11.50;99.90;;;;;;5018788;28;20532;-73
2022/04/19 08:42:27;;;;;;;5.55;3.00;;;11.60;99.90;;;;;;5018600;28;20477;-72
2022/04/19 08:45:30;;;;;;;3.27;3.00;;;11.70;99.90;;;;;;5020779;28;20202;-72
2022/04/19 08:48:11;;;;;;;3.03;2.83;;;11.80;99.90;;;;;;5004598;28;20478;-72
2022/04/19 08:51:03;;;;;;;5.07;2.70;;;11.90;99.90;;;;;;5000969;28;20458;-72
2022/04/19 08:59:03;;;;;;;3.67;3.37;;;12.10;99.90;;;;;;4999194;28;20714;-73
2022/04/19 09:01:32;;;;;;;5.33;3.30;;;12.20;99.90;;;;;;4999076;28;20482;-73
2022/04/19 09:04:02;;;;;;;5.40;3.77;;;12.30;99.90;;;;;;4997547;28;20628;-72
2022/04/19 09:07:04;;;;;;;4.17;3.77;;;12.30;99.90;;;;;;4997692;28;20450;-74
2022/04/19 09:09:34;;;;;;;6.20;4.20;;;12.40;99.90;;;;;;4997248;28;20472;-72
2022/04/19 09:12:11;;;;;;;3.53;3.10;;;12.30;99.90;;;;;;4997090;28;20563;-73
2022/04/19 09:14:55;;;;;;;5.90;4.30;;;12.40;99.90;;;;;;4997348;28;20548;-71
2022/04/19 09:17:32;;;;;;;4.57;4.13;;;12.40;99.90;;;;;;4998947;28;20442;-73
2022/04/19 09:20:15;;;;;;;5.27;4.30;;;12.50;99.90;;;;;;4996216;28;20438;-71
2022/04/19 09:22:44;;;;;;;6.07;4.57;;;12.60;99.90;;;;;;4995976;28;20505;-71
2022/04/19 09:25:17;;;;;;;3.57;3.37;;;12.70;99.90;;;;;;4984943;28;20486;-76
2022/04/19 09:27:46;;;;;;;6.47;5.07;;;12.90;99.90;;;;;;4986343;28;20638;-73
2022/04/19 09:30:22;;;;;;;6.03;4.97;;;13.00;99.90;;;;;;4987604;28;20604;-73
2022/04/19 09:33:10;;;;;;;7.80;5.47;;;13.20;99.90;;;;;;4988532;28;20993;-72
2022/04/19 09:35:40;;;;;;;6.53;4.97;;;13.20;99.90;;;;;;4985461;28;20853;-72
2022/04/19 09:38:08;;;;;;;5.23;4.70;;;13.20;99.90;;;;;;4985473;28;20813;-75
2022/04/19 09:40:38;;;;;;;6.00;5.20;;;13.20;99.90;;;;;;4985197;28;20914;-74
2022/04/19 09:43:14;;;;;;;8.43;5.43;;;13.20;99.90;;;;;;4990295;28;21154;-73
2022/04/19 09:45:51;;;;;;;6.93;5.40;;;13.30;99.90;;;;;;4993887;27;21217;-73
2022/04/19 09:48:39;;;;;;;6.00;4.03;;;13.40;99.90;;;;;;4991984;28;20439;-72
2022/04/19 09:51:18;;;;;;;6.67;5.00;;;13.40;99.80;;;;;;4990348;28;20868;-72
2022/04/19 09:53:47;;;;;;;5.80;4.53;;;13.50;99.90;;;;;;4989625;28;20449;-72
2022/04/19 09:56:19;;;;;;;5.97;4.43;;;13.50;99.90;;;;;;4998152;28;20678;-74
2022/04/19 09:59:09;;;;;;;5.30;4.30;;;13.60;98.80;;;;;;4986825;28;21000;-73
2022/04/19 10:09:58;;;;;;;5.97;3.83;;;13.60;95.70;;;;;;4996239;27;21104;-72
2022/04/19 10:12:30;;;;;;;3.30;3.00;;;13.60;96.20;;;;;;5001885;28;20447;-72
2022/04/19 10:15:06;;;;;;;4.40;3.20;;;13.70;96.40;;;;;;5010132;28;20526;-70
2022/04/19 10:17:41;;;;;;;3.27;3.03;;;13.70;96.40;;;;;;5012154;28;20740;-72
2022/04/19 10:20:15;;;;;;;5.33;3.53;;;13.80;96.40;;;;;;5010182;28;21098;-71
2022/04/19 10:22:48;;;;;;;3.20;2.70;;;13.80;96.30;;;;;;5030566;27;20566;-71
2022/04/19 10:25:17;;;;;;;7.03;3.60;;;13.80;96.60;;;;;;5020393;28;20830;-71
2022/04/19 10:27:49;;;;;;;3.17;2.87;;;13.90;96.90;;;;;;5004548;28;20538;-72
2022/04/19 10:30:32;;;;;;;4.20;2.97;;;13.90;97.40;;;;;;5016570;28;20470;-72
2022/04/19 10:33:02;;;;;;;5.20;3.60;;;13.80;97.60;;;;;;4998815;28;20918;-72
2022/04/19 10:36:14;;;;;;;4.83;3.17;;;13.80;97.90;;;;;;4989913;28;20431;-73
2022/04/19 10:38:48;;;;;;;4.70;3.00;;;13.80;98.10;;;;;;4993757;28;20464;-72
2022/04/19 10:41:52;;;;;;;3.57;2.90;;;13.90;98.40;;;;;;4996468;28;20681;-71
2022/04/19 10:44:21;;;;;;;5.90;2.63;;;14.00;98.20;;;;;;4996319;28;20882;-71
2022/04/19 10:47:04;;;;;;;2.43;2.17;;;14.10;98.10;;;;;;4996594;28;20553;-73
2022/04/19 10:49:37;;;;;;;2.83;2.40;;;14.10;97.80;;;;;;4987854;28;20437;-71
2022/04/19 10:52:50;;;;;;;2.73;2.60;;;14.10;98.20;;;;;;4989271;28;20475;-73
2022/04/19 10:55:27;;;;;;;2.53;2.33;;;14.20;98.90;;;;;;4997671;27;20556;-72
2022/04/19 10:58:08;;;;;;;4.77;2.10;;;14.20;98.40;;;;;;4994187;28;21071;-74
2022/04/19 11:00:48;;;;;;;2.60;2.00;;;14.30;98.20;;;;;;4992668;28;20444;-74
2022/04/19 11:03:46;;;;;;;2.87;2.37;;;14.40;98.10;;;;;;4987142;28;20977;-73
2022/04/19 11:06:38;;;;;;;2.70;2.20;;;14.50;98.10;;;;;;4982497;27;20454;-74
2022/04/19 11:09:19;;;;;;;2.70;2.50;;;14.50;98.00;;;;;;4990627;28;20508;-74
2022/04/19 11:11:49;;;;;;;3.33;2.80;;;14.50;98.20;;;;;;4988470;28;20785;-73
2022/04/19 11:14:40;;;;;;;2.10;2.00;;;14.40;98.20;;;;;;4994496;28;20475;-71
2022/04/19 11:17:40;;;;;;;2.43;2.20;;;14.40;98.00;;;;;;4992074;27;20451;-73
2022/04/19 11:20:14;;;;;;;3.73;2.43;;;14.40;98.00;;;;;;4993008;28;20442;-74
2022/04/19 11:22:47;;;;;;;3.63;2.70;;;14.40;98.20;;;;;;5003501;28;21257;-74
2022/04/19 11:25:35;;;;;;;3.17;2.20;;;14.40;98.00;;;;;;4994238;28;20904;-74
2022/04/19 11:28:30;;;;;;;2.83;2.47;;;14.40;98.00;;;;;;4993567;28;20546;-74
2022/04/19 11:31:16;;;;;;;5.10;1.77;;;14.50;98.00;;;;;;4986940;28;20601;-74
2022/04/19 11:33:44;;;;;;;2.30;1.40;;;14.50;97.70;;;;;;4989343;28;20431;-74
2022/04/19 11:36:15;;;;;;;1.50;1.40;;;14.60;97.70;;;;;;4981170;28;20438;-72
2022/04/19 11:38:48;;;;;;;1.63;1.53;;;14.60;97.40;;;;;;4985524;28;20445;-73
2022/04/19 11:47:00;;;;;;;2.10;1.63;;;14.60;97.00;;;;;;4989581;28;20466;-75
2022/04/19 11:49:34;;;;;;;1.70;1.60;;;14.60;97.10;;;;;;4989856;28;20550;-76
2022/04/19 11:52:07;;;;;;;1.80;1.30;;;14.60;97.40;;;;;;4991335;28;20457;-75
2022/04/19 11:54:35;;;;;;;0.87;0.70;;;14.70;97.50;;;;;;4989941;28;20458;-75
2022/04/19 11:57:10;;;;;;;1.07;0.97;;;14.80;97.00;;;;;;5074140;28;20546;-75
2022/04/19 11:59:42;;;;;;;1.30;1.20;;;14.90;96.70;;;;;;4984863;28;20496;-78
2022/04/19 12:02:16;;;;;;;0.80;0.80;;;14.90;96.20;;;;;;4988984;28;20494;-77
2022/04/19 12:04:54;;;;;;;1.93;0.80;;;14.90;96.20;;;;;;4983661;28;20433;-76
2022/04/19 12:07:25;;;;;;;1.10;1.00;;;14.90;96.20;;;;;;4989604;28;20808;-76
2022/04/19 12:09:54;;;;;;;1.20;1.20;;;15.00;95.80;;;;;;4991368;28;20860;-75
2022/04/19 12:12:23;;;;;;;1.13;0.93;;;15.00;95.90;;;;;;4988045;28;20613;-74
2022/04/19 12:14:52;;;;;;;1.83;0.87;;;15.00;96.30;;;;;;4987192;27;20440;-74
2022/04/19 12:17:24;;;;;;;2.90;2.07;;;15.00;96.40;;;;;;4987915;28;20961;-76
2022/04/19 12:20:02;;;;;;;3.40;1.07;;;15.10;95.90;;;;;;4984135;28;20447;-76
2022/04/19 12:22:52;;;;;;;1.10;1.00;;;15.20;95.80;;;;;;4988729;28;20570;-75
2022/04/19 12:25:32;;;;;;;0.60;0.50;;;15.20;95.60;;;;;;4995982;28;20691;-80
2022/04/19 12:28:14;;;;;;;0.87;0.80;;;15.20;95.10;;;;;;4985034;28;20438;-79
2022/04/19 12:30:47;;;;;;;2.20;0.70;;;15.20;94.40;;;;;;4986134;28;20478;-79
2022/04/19 12:33:19;;;;;;;1.17;0.80;;;15.20;93.80;;;;;;4990018;28;21018;-77
2022/04/19 12:35:54;;;;;;;0.50;0.50;;;15.20;94.00;;;;;;4999418;27;20636;-79
2022/04/19 12:38:30;;;;;;;1.17;0.43;;;15.20;93.50;;;;;;4998228;28;20874;-76
2022/04/19 12:41:02;;;;;;;0.60;0.50;;;15.20;93.00;;;;;;4988063;28;20483;-73
2022/04/19 12:43:47;;;;;;;0.70;0.70;;;15.20;92.00;;;;;;5003984;28;20561;-76
2022/04/19 12:46:19;;;;;;;0.70;0.60;;;15.10;91.20;;;;;;5015462;28;20617;-75
2022/04/19 12:48:54;;;;;;;0.53;0.40;;;15.10;90.90;;;;;;5017435;28;20476;-75
2022/04/19 12:51:24;;;;;;;2.00;0.60;;;15.10;86.90;;;;;;5012526;28;20504;-75
2022/04/19 12:54:06;;;;;;;0.40;0.40;;;15.10;86.90;;;;;;5005949;28;20997;-75
2022/04/19 12:56:34;;;;;;;0.70;0.53;;;15.00;88.90;;;;;;5006371;27;20478;-74
2022/04/19 12:59:03;;;;;;;0.70;0.70;;;15.00;89.50;;;;;;5009757;28;20450;-75
2022/04/19 13:01:31;;;;;;;1.73;0.50;;;15.00;88.80;;;;;;5011844;28;20670;-76
2022/04/19 13:04:00;;;;;;;1.90;0.50;;;15.10;87.70;;;;;;5002175;27;20481;-75
2022/04/19 13:12:22;;;;;;;1.07;0.67;;;15.10;87.20;;;;;;5006612;28;20889;-74
2022/04/19 13:14:53;;;;;;;1.00;1.00;;;15.10;88.60;;;;;;5003704;28;20547;-75
2022/04/19 13:17:27;;;;;;;1.03;0.60;;;15.30;88.60;;;;;;5016828;28;20528;-76
2022/04/19 13:19:56;;;;;;;1.03;0.80;;;15.30;86.70;;;;;;5007264;28;20452;-76
2022/04/19 13:22:37;;;;;;;0.90;0.90;;;15.30;86.00;;;;;;5008409;28;20466;-75
2022/04/19 13:25:37;;;;;;;0.70;0.70;;;15.30;85.70;;;;;;5000855;28;20599;-77
2022/04/19 13:28:13;;;;;;;0.60;0.60;;;15.30;84.90;;;;;;5000313;28;21167;-77
2022/04/19 13:30:50;;;;;;;0.60;0.60;;;15.30;84.50;;;;;;5000147;28;20565;-77
2022/04/19 13:33:28;;;;;;;0.63;0.60;;;15.20;84.80;;;;;;4999591;28;20434;-77
2022/04/19 13:35:56;;;;;;;2.10;0.60;;;15.10;84.70;;;;;;5000708;28;20449;-76
2022/04/19 13:38:24;;;;;;;1.50;0.63;;;15.10;84.70;;;;;;5001815;28;20461;-77
2022/04/19 13:40:53;;;;;;;1.43;0.80;;;15.10;84.80;;;;;;5001627;28;20484;-76
2022/04/19 13:43:22;;;;;;;0.97;0.87;;;15.10;84.80;;;;;;5000557;27;20564;-76
2022/04/19 13:45:51;;;;;;;1.27;0.50;;;15.10;85.30;;;;;;5001703;28;20438;-74
2022/04/19 13:48:19;;;;;;;2.63;1.40;;;15.10;84.80;;;;;;5001822;28;20453;-76
2022/04/19 13:50:47;;;;;;;1.10;1.10;;;15.10;84.20;;;;;;5002386;28;20469;-76
2022/04/19 13:53:15;;;;;;;0.90;0.90;;;15.10;85.40;;;;;;5000552;28;20438;-76
2022/04/19 13:55:43;;;;;;;1.83;0.97;;;15.10;85.10;;;;;;5000183;28;20446;-76